Artas, South Dakota
Current Conditions -  °F | °C
As of 3:01 AM on Wednesday 26 Nov 2014 (Local Time) from KMBG Reporting Station
Overcast Overcast  
Wind Chill:   Ceiling: 1400
Heat Index: 19°   Visibility: 10mi
Dew Point: 14°   Wind: 17mph
Humidity: 81%   Direction: 350°N
Pressure: 30.14"   Gusts: 30mph
Location:  45.7737°N, 99.5895°W
Report Text: KMBG 260901Z AUTO 35015G26KT 10SM OVC014 M07/M10 A3014 RMK AO2 PK WND 36026/0858 T10721100
Loading
Personal Weather Stations






























Interactive Weather Map New forecast layout! Learn more

10-Day Weather Forecast

Advertisements
Track Severe Weather on mobile